KMQE

East Milton Airport

Massachusetts, USA
METAR KMQE 221456Z AUTO 11004KT 18/12 A3015 RMK AO1 SLP220 T01830122 50000
Observed Flight Rules
May-22 @ 14:56 UTC (21 minutes ago)
Wind
110° at 4 knots
Temperatures Readings
Current 18°C / 64°F
Dewpoint 12°C / 54°F
Humidity 68%
Altimeter 30.15" Hg
Pressure 1022 hPa
Elevation 199
METAR KMQE 221456Z AUTO 11004KT 18/12 A3015 RMK AO1 SLP220 T01830122 50000
Observed Flight Rules
May-22 @ 14:56 UTC
(21 minutes ago)
Wind
110° at 4 knots
Temperature Dewpoint
18°C / 64°F 12°C / 54°F
Humidity Altimeter Pressure
68% 30.15" Hg 1022 hPa